createdAt,value
2023-04-06T00:00:38.863Z,59.97
2023-04-06T00:03:06.974Z,59.28
2023-04-06T00:05:34.255Z,60.23
2023-04-06T00:08:01.466Z,61.07
2023-04-06T00:10:29.089Z,59.76
2023-04-06T00:12:57.640Z,59.56
2023-04-06T00:15:24.840Z,60.22
2023-04-06T00:17:52.424Z,60.27
2023-04-06T00:20:19.645Z,59.76
2023-04-06T00:22:46.880Z,59.91
2023-04-06T00:25:16.310Z,60.31
2023-04-06T00:27:43.568Z,60.14
2023-04-06T00:30:10.960Z,60.05
2023-04-06T00:32:38.552Z,60.41
2023-04-06T00:35:06.475Z,60.74
2023-04-06T00:37:33.769Z,61.41
2023-04-06T00:40:01.285Z,59.83
2023-04-06T00:42:28.586Z,59.08
2023-04-06T00:44:56.380Z,59.15
2023-04-06T00:47:24.392Z,61.13
2023-04-06T00:49:51.595Z,61.67
2023-04-06T00:52:19.068Z,61.68
2023-04-06T00:54:46.916Z,60.58
2023-04-06T00:57:14.568Z,61.42
2023-04-06T00:59:43.084Z,61.96
2023-04-06T01:02:11.394Z,61.32
2023-04-06T01:04:39.305Z,61.02
2023-04-06T01:07:07.729Z,59.53
2023-04-06T01:09:36.642Z,59.50
2023-04-06T01:12:04.860Z,60.04
2023-04-06T01:14:32.474Z,59.12
2023-04-06T01:17:01.497Z,59.31
2023-04-06T01:19:29.012Z,60.12
2023-04-06T01:21:56.573Z,60.11
2023-04-06T01:24:25.395Z,60.33
2023-04-06T01:26:53.306Z,60.81
2023-04-06T01:29:20.742Z,61.28
2023-04-06T01:31:49.539Z,62.32
2023-04-06T01:34:17.223Z,62.26
2023-04-06T01:36:44.547Z,61.65
2023-04-06T01:39:15.869Z,60.24
2023-04-06T01:41:43.165Z,60.84
2023-04-06T01:44:10.460Z,60.74
2023-04-06T01:46:37.912Z,60.78
2023-04-06T01:49:07.013Z,60.20
2023-04-06T01:51:34.460Z,60.56
2023-04-06T01:54:02.241Z,61.30
2023-04-06T01:56:31.153Z,61.29
2023-04-06T01:58:59.267Z,61.42
2023-04-06T02:01:27.543Z,61.60
2023-04-06T02:03:55.409Z,61.50
2023-04-06T02:06:22.654Z,62.07
2023-04-06T02:08:50.077Z,61.79
2023-04-06T02:11:17.610Z,62.19
2023-04-06T02:13:45.391Z,62.48
2023-04-06T02:16:12.911Z,63.03
2023-04-06T02:18:40.739Z,63.03
2023-04-06T02:21:08.085Z,62.35
2023-04-06T02:23:35.348Z,62.01
2023-04-06T02:26:02.816Z,62.68
2023-04-06T02:28:30.008Z,63.13
2023-04-06T02:30:57.496Z,60.27
2023-04-06T02:33:25.535Z,61.12
2023-04-06T02:35:52.991Z,63.43
2023-04-06T02:38:20.511Z,62.06
2023-04-06T02:40:47.738Z,62.25
2023-04-06T02:43:16.460Z,62.29
2023-04-06T02:45:44.624Z,62.29
2023-04-06T02:48:12.185Z,61.87
2023-04-06T02:50:39.406Z,62.08
2023-04-06T02:53:07.401Z,62.49
2023-04-06T02:55:35.567Z,62.68
2023-04-06T02:58:02.831Z,63.20
2023-04-06T03:00:31.163Z,63.89
2023-04-06T03:02:58.561Z,64.21
2023-04-06T03:05:26.134Z,63.85
2023-04-06T03:07:53.741Z,64.44
2023-04-06T03:10:21.638Z,64.62
2023-04-06T03:12:49.156Z,64.29
2023-04-06T03:15:16.728Z,64.30
2023-04-06T03:17:44.705Z,63.68
2023-04-06T03:20:12.998Z,64.14
2023-04-06T03:22:40.441Z,64.19
2023-04-06T03:25:07.910Z,64.23
2023-04-06T03:27:35.487Z,61.75
2023-04-06T03:30:04.082Z,64.02
2023-04-06T03:32:31.777Z,64.47
2023-04-06T03:34:59.297Z,64.29
2023-04-06T03:37:26.769Z,64.46
2023-04-06T03:39:55.047Z,63.39
2023-04-06T03:42:22.476Z,64.54
2023-04-06T03:44:49.983Z,64.69
2023-04-06T03:47:17.723Z,64.53
2023-04-06T03:49:44.948Z,64.57
2023-04-06T03:52:12.653Z,65.72
2023-04-06T03:54:39.882Z,66.06
2023-04-06T03:57:07.226Z,66.16
2023-04-06T03:59:34.792Z,65.93
2023-04-06T04:02:02.190Z,65.74
2023-04-06T04:04:30.420Z,65.56
2023-04-06T04:06:58.816Z,66.69
2023-04-06T04:09:28.496Z,66.69
2023-04-06T04:11:57.373Z,67.93
2023-04-06T04:14:24.608Z,66.34
2023-04-06T04:16:51.834Z,67.54
2023-04-06T04:19:19.357Z,65.41
2023-04-06T04:21:47.144Z,67.95
2023-04-06T04:24:14.706Z,67.26
2023-04-06T04:26:42.255Z,67.87
2023-04-06T04:29:09.779Z,63.27
2023-04-06T04:31:37.386Z,61.37
2023-04-06T04:34:05.129Z,60.24
2023-04-06T04:36:32.562Z,60.89
2023-04-06T04:39:02.172Z,65.38
2023-04-06T04:41:30.543Z,65.09
2023-04-06T04:43:59.122Z,60.55
2023-04-06T04:46:26.507Z,58.85
2023-04-06T04:48:54.526Z,63.19
2023-04-06T04:51:21.931Z,65.62
2023-04-06T04:53:50.247Z,66.27
2023-04-06T04:56:17.978Z,65.62
2023-04-06T04:58:45.868Z,67.55
2023-04-06T05:01:13.370Z,67.52
2023-04-06T05:03:41.239Z,67.83
2023-04-06T05:06:10.450Z,68.31
2023-04-06T05:08:40.625Z,67.91
2023-04-06T05:11:08.300Z,66.05
2023-04-06T05:13:35.978Z,65.25
2023-04-06T05:16:06.742Z,64.75
2023-04-06T05:18:35.548Z,62.97
2023-04-06T05:21:03.148Z,65.18
2023-04-06T05:23:31.339Z,64.91
2023-04-06T05:26:02.289Z,64.90
2023-04-06T05:28:29.563Z,64.50
2023-04-06T05:30:57.924Z,64.82
2023-04-06T05:33:27.287Z,63.93
2023-04-06T05:35:55.883Z,64.49
2023-04-06T05:38:23.429Z,63.79
2023-04-06T05:40:51.318Z,62.51
2023-04-06T05:43:21.064Z,63.25
2023-04-06T05:45:52.621Z,62.26
2023-04-06T05:48:20.641Z,62.63
2023-04-06T05:50:57.223Z,62.54
2023-04-06T05:53:27.471Z,64.00
2023-04-06T05:55:55.126Z,63.31
2023-04-06T05:58:22.393Z,63.64
2023-04-06T06:00:50.677Z,59.93
2023-04-06T06:03:18.611Z,60.24
2023-04-06T06:05:47.200Z,58.24
2023-04-06T06:08:15.543Z,59.04
2023-04-06T06:10:43.096Z,59.31
2023-04-06T06:13:11.272Z,56.34
2023-04-06T06:15:38.760Z,55.22
2023-04-06T06:18:06.662Z,56.75
2023-04-06T06:20:33.990Z,58.22
2023-04-06T06:23:01.501Z,58.22
2023-04-06T06:25:31.764Z,58.78
2023-04-06T06:27:59.356Z,57.26
2023-04-06T06:30:27.307Z,57.22
2023-04-06T06:32:54.807Z,56.67
2023-04-06T06:35:23.708Z,57.63
2023-04-06T06:37:51.325Z,55.52
2023-04-06T06:40:21.048Z,55.11
2023-04-06T06:42:48.390Z,55.30
2023-04-06T06:45:16.720Z,54.18
2023-04-06T06:47:44.289Z,54.22
2023-04-06T06:50:12.253Z,53.30
2023-04-06T06:52:39.510Z,53.76
2023-04-06T06:55:07.288Z,52.76
2023-04-06T06:57:35.866Z,52.54
2023-04-06T07:00:03.719Z,51.87
2023-04-06T07:02:31.252Z,53.05
2023-04-06T07:04:58.713Z,53.88
2023-04-06T07:07:26.562Z,53.49
2023-04-06T07:09:54.196Z,52.73
2023-04-06T07:12:21.620Z,52.01
2023-04-06T07:14:48.994Z,51.33
2023-04-06T07:17:16.936Z,50.78
2023-04-06T07:19:47.276Z,50.10
2023-04-06T07:22:14.610Z,49.20
2023-04-06T07:24:42.275Z,49.27
2023-04-06T07:27:09.481Z,50.64
2023-04-06T07:29:36.739Z,50.32
2023-04-06T07:32:04.868Z,49.61
2023-04-06T07:34:32.723Z,49.04
2023-04-06T07:37:03.861Z,49.47
2023-04-06T07:39:31.743Z,47.06
2023-04-06T07:41:59.093Z,47.91
2023-04-06T07:44:26.515Z,46.33
2023-04-06T07:46:54.155Z,46.42
2023-04-06T07:49:22.032Z,46.63
2023-04-06T07:51:49.492Z,46.65
2023-04-06T07:54:17.100Z,45.20
2023-04-06T07:56:44.284Z,45.67
2023-04-06T07:59:12.479Z,46.55
2023-04-06T08:01:40.042Z,45.09
2023-04-06T08:04:07.970Z,45.28
2023-04-06T08:06:37.358Z,45.29
2023-04-06T08:09:04.796Z,44.89
2023-04-06T08:11:32.277Z,44.14
2023-04-06T08:13:59.572Z,44.23
2023-04-06T08:16:26.784Z,43.44
2023-04-06T08:18:54.826Z,43.89
2023-04-06T08:21:22.025Z,43.27
2023-04-06T08:23:49.216Z,43.49
2023-04-06T08:26:16.662Z,42.19
2023-04-06T08:28:46.355Z,41.73
2023-04-06T08:31:14.285Z,43.25
2023-04-06T08:33:41.795Z,42.63
2023-04-06T08:36:09.894Z,43.04
2023-04-06T08:38:37.193Z,42.22
2023-04-06T08:41:11.133Z,42.00
2023-04-06T08:43:45.602Z,42.22
2023-04-06T08:46:13.280Z,41.17
2023-04-06T08:48:41.202Z,40.88
2023-04-06T08:51:08.988Z,42.58
2023-04-06T08:53:36.921Z,41.13
2023-04-06T08:56:04.537Z,41.50
2023-04-06T08:58:38.602Z,40.78
2023-04-06T09:01:08.476Z,40.43
2023-04-06T09:03:38.493Z,41.02
2023-04-06T09:06:05.842Z,40.33
2023-04-06T09:08:37.252Z,40.68
2023-04-06T09:11:04.725Z,41.08
2023-04-06T09:13:32.197Z,40.85
2023-04-06T09:16:00.479Z,38.50
2023-04-06T09:18:34.536Z,38.32
2023-04-06T09:21:06.062Z,39.97
2023-04-06T09:23:33.261Z,38.39
2023-04-06T09:26:06.488Z,36.97
2023-04-06T09:28:43.313Z,37.05
2023-04-06T09:31:11.184Z,37.67
2023-04-06T09:33:39.774Z,37.18
2023-04-06T09:36:07.389Z,37.68
2023-04-06T09:38:34.678Z,37.49
2023-04-06T09:41:03.152Z,37.57
2023-04-06T09:43:30.893Z,38.87
2023-04-06T09:45:59.769Z,37.70
2023-04-06T09:48:29.292Z,36.55
2023-04-06T09:50:59.142Z,36.32
2023-04-06T09:53:26.562Z,36.32
2023-04-06T09:55:53.719Z,36.39
2023-04-06T09:58:27.143Z,36.16
2023-04-06T10:00:54.867Z,37.23
2023-04-06T10:03:27.720Z,35.67
2023-04-06T10:05:59.761Z,35.21
2023-04-06T10:08:31.800Z,36.14
2023-04-06T10:11:00.278Z,34.87
2023-04-06T10:13:27.816Z,35.44
2023-04-06T10:15:55.399Z,34.03
2023-04-06T10:18:22.691Z,34.51
2023-04-06T10:20:50.146Z,34.17
2023-04-06T10:23:21.758Z,33.73
2023-04-06T10:25:55.902Z,32.74
2023-04-06T10:28:24.016Z,31.81
2023-04-06T10:30:57.364Z,31.83
2023-04-06T10:33:24.853Z,33.33
2023-04-06T10:35:52.139Z,32.73
2023-04-06T10:38:23.053Z,33.88
2023-04-06T10:40:53.071Z,33.52
2023-04-06T10:43:21.249Z,31.45
2023-04-06T10:45:58.620Z,32.22
2023-04-06T10:48:27.101Z,32.44
2023-04-06T10:50:54.828Z,30.82
2023-04-06T10:53:25.796Z,31.99
2023-04-06T10:55:54.002Z,34.50
2023-04-06T10:58:21.143Z,33.41
2023-04-06T11:00:51.142Z,33.07
2023-04-06T11:03:19.259Z,31.25
2023-04-06T11:05:48.170Z,31.86
2023-04-06T11:08:31.890Z,31.54
2023-04-06T11:11:10.443Z,31.56
2023-04-06T11:13:44.797Z,31.69
2023-04-06T11:16:19.252Z,31.21
2023-04-06T11:18:52.739Z,31.85
2023-04-06T11:21:21.085Z,31.58
2023-04-06T11:23:48.258Z,33.37
2023-04-06T11:26:15.873Z,35.12
2023-04-06T11:28:45.228Z,35.84
2023-04-06T11:31:12.628Z,36.54
2023-04-06T11:33:39.952Z,35.16
2023-04-06T11:36:07.628Z,36.27
2023-04-06T11:38:35.070Z,36.75
2023-04-06T11:41:02.905Z,34.82
2023-04-06T11:43:30.896Z,34.81
2023-04-06T11:46:03.210Z,35.79
2023-04-06T11:48:31.264Z,33.91
2023-04-06T11:50:59.706Z,32.59
2023-04-06T11:53:27.076Z,33.59
2023-04-06T11:55:54.609Z,33.58
2023-04-06T11:58:21.886Z,33.35
2023-04-06T12:00:49.117Z,32.32
2023-04-06T12:03:16.846Z,32.44
2023-04-06T12:05:44.549Z,33.50
2023-04-06T12:08:11.853Z,34.18
2023-04-06T12:10:39.385Z,33.91
2023-04-06T12:13:06.688Z,34.07
2023-04-06T12:15:33.892Z,34.00
2023-04-06T12:18:01.659Z,34.36
2023-04-06T12:20:29.266Z,33.78
2023-04-06T12:22:56.462Z,34.33
2023-04-06T12:25:23.918Z,32.80
2023-04-06T12:27:51.356Z,32.86
2023-04-06T12:30:18.621Z,34.32
2023-04-06T12:32:46.882Z,34.37
2023-04-06T12:35:16.877Z,33.48
2023-04-06T12:37:44.122Z,33.14
2023-04-06T12:40:13.326Z,32.85
2023-04-06T12:42:41.870Z,33.77
2023-04-06T12:45:09.744Z,33.05
2023-04-06T12:47:37.502Z,32.95
2023-04-06T12:50:08.021Z,33.02
2023-04-06T12:52:36.558Z,33.66
2023-04-06T12:55:04.451Z,31.69
2023-04-06T12:57:32.083Z,33.12
2023-04-06T12:59:59.727Z,32.28
2023-04-06T13:02:28.183Z,32.01
2023-04-06T13:04:55.631Z,32.04
2023-04-06T13:07:22.989Z,32.22
2023-04-06T13:09:50.708Z,32.09
2023-04-06T13:12:17.951Z,32.17
2023-04-06T13:14:45.404Z,31.78
2023-04-06T13:17:12.838Z,32.25
2023-04-06T13:19:40.515Z,32.03
2023-04-06T13:22:07.808Z,32.34
2023-04-06T13:24:36.783Z,31.87
2023-04-06T13:27:04.022Z,32.36
2023-04-06T13:29:31.219Z,32.76
2023-04-06T13:31:58.794Z,33.38
2023-04-06T13:34:25.997Z,34.56
2023-04-06T13:36:53.201Z,33.23
2023-04-06T13:39:21.010Z,34.89
2023-04-06T13:41:48.171Z,33.74
2023-04-06T13:44:15.358Z,34.27
2023-04-06T13:46:44.367Z,34.22
2023-04-06T13:49:11.915Z,34.50
2023-04-06T13:51:40.038Z,34.51
2023-04-06T13:54:07.604Z,34.98
2023-04-06T13:56:35.605Z,34.02
2023-04-06T13:59:03.848Z,33.50
2023-04-06T14:01:31.526Z,34.30
2023-04-06T14:04:01.610Z,35.15
2023-04-06T14:06:31.551Z,34.86
2023-04-06T14:08:59.650Z,34.73
2023-04-06T14:11:27.394Z,35.50
2023-04-06T14:13:57.302Z,36.25
2023-04-06T14:16:26.013Z,36.73
2023-04-06T14:18:53.356Z,37.79
2023-04-06T14:21:21.125Z,38.81
2023-04-06T14:23:48.665Z,39.00
2023-04-06T14:26:16.332Z,38.88
2023-04-06T14:28:43.726Z,38.92
2023-04-06T14:31:14.381Z,38.14
2023-04-06T14:33:43.274Z,36.73
2023-04-06T14:36:11.888Z,37.55
2023-04-06T14:38:40.452Z,37.34
2023-04-06T14:41:09.053Z,39.01
2023-04-06T14:43:36.560Z,37.56
2023-04-06T14:46:03.840Z,37.41
2023-04-06T14:48:31.302Z,37.87
2023-04-06T14:50:58.913Z,38.94
2023-04-06T14:53:26.179Z,39.00
2023-04-06T14:55:53.556Z,39.96
2023-04-06T14:58:21.488Z,39.82
2023-04-06T15:00:48.930Z,39.74
2023-04-06T15:03:16.683Z,40.52
2023-04-06T15:05:44.278Z,39.99
2023-04-06T15:08:12.591Z,39.73
2023-04-06T15:10:40.290Z,40.94
2023-04-06T15:13:07.773Z,42.53
2023-04-06T15:15:34.948Z,43.12
2023-04-06T15:18:03.539Z,43.01
2023-04-06T15:20:31.558Z,43.47
2023-04-06T15:22:58.807Z,43.46
2023-04-06T15:25:26.305Z,42.49
2023-04-06T15:27:54.791Z,42.57
2023-04-06T15:30:22.051Z,42.05
2023-04-06T15:33:04.806Z,42.17
2023-04-06T15:35:32.545Z,42.56
2023-04-06T15:37:59.748Z,41.69
2023-04-06T15:40:27.334Z,41.51
2023-04-06T15:42:54.784Z,41.61
2023-04-06T15:45:22.181Z,42.02
2023-04-06T15:47:50.574Z,42.33
2023-04-06T15:50:19.734Z,43.70
2023-04-06T15:52:47.051Z,43.15
2023-04-06T15:55:14.200Z,43.53
2023-04-06T15:57:41.677Z,45.48
2023-04-06T16:00:10.369Z,46.21
2023-04-06T16:02:38.180Z,47.91
2023-04-06T16:05:05.787Z,46.56
2023-04-06T16:07:34.317Z,47.34
2023-04-06T16:10:02.366Z,47.33
2023-04-06T16:12:30.824Z,47.54
2023-04-06T16:14:58.017Z,48.42
2023-04-06T16:17:25.659Z,47.92
2023-04-06T16:19:52.979Z,48.43
2023-04-06T16:22:20.926Z,47.71
2023-04-06T16:24:48.345Z,49.22
2023-04-06T16:27:15.842Z,51.31
2023-04-06T16:29:43.076Z,52.62
2023-04-06T16:32:12.319Z,55.14
2023-04-06T16:34:39.571Z,56.20
2023-04-06T16:37:06.867Z,58.84
2023-04-06T16:39:34.516Z,60.88
2023-04-06T16:42:02.819Z,60.65
2023-04-06T16:44:30.478Z,62.08
2023-04-06T16:46:58.013Z,60.83
2023-04-06T16:49:25.769Z,62.05
2023-04-06T16:51:52.946Z,61.95
2023-04-06T16:54:20.436Z,61.99
2023-04-06T16:56:55.054Z,64.52
2023-04-06T16:59:22.443Z,66.23
2023-04-06T17:01:49.739Z,68.28
2023-04-06T17:04:18.419Z,68.74
2023-04-06T17:06:45.982Z,69.46
2023-04-06T17:09:13.270Z,69.93
2023-04-06T17:11:46.650Z,70.96
2023-04-06T17:14:14.366Z,71.16
2023-04-06T17:16:41.707Z,70.95
2023-04-06T17:19:09.959Z,71.14
2023-04-06T17:21:38.777Z,72.03
2023-04-06T17:24:06.122Z,73.43
2023-04-06T17:26:33.313Z,74.22
2023-04-06T17:29:01.062Z,74.97
2023-04-06T17:31:28.250Z,75.68
2023-04-06T17:33:55.444Z,75.72
2023-04-06T17:36:22.954Z,76.36
2023-04-06T17:38:50.628Z,77.01
2023-04-06T17:41:17.928Z,76.50
2023-04-06T17:43:45.645Z,76.72
2023-04-06T17:46:13.112Z,77.02
2023-04-06T17:48:40.632Z,77.34
2023-04-06T17:51:08.325Z,78.76
2023-04-06T17:53:36.849Z,79.06
2023-04-06T17:56:04.683Z,79.69
2023-04-06T17:58:32.239Z,78.80
2023-04-06T18:00:59.482Z,79.61
2023-04-06T18:03:27.428Z,80.36
2023-04-06T18:05:54.970Z,78.84
2023-04-06T18:08:22.530Z,78.15
2023-04-06T18:10:50.311Z,77.95
2023-04-06T18:13:17.453Z,77.59
2023-04-06T18:15:44.875Z,78.14
2023-04-06T18:18:12.363Z,79.80
2023-04-06T18:20:40.316Z,78.04
2023-04-06T18:23:07.553Z,76.88
2023-04-06T18:25:38.550Z,78.01
2023-04-06T18:28:06.296Z,77.90
2023-04-06T18:30:33.636Z,78.94
2023-04-06T18:33:01.125Z,77.78
2023-04-06T18:35:28.404Z,78.47
2023-04-06T18:37:55.731Z,78.20
2023-04-06T18:40:33.058Z,79.10
2023-04-06T18:43:00.555Z,79.88
2023-04-06T18:45:28.059Z,78.33
2023-04-06T18:47:56.310Z,78.03
2023-04-06T18:50:23.833Z,77.62
2023-04-06T18:52:52.249Z,77.54
2023-04-06T18:55:19.982Z,78.40
2023-04-06T18:57:47.487Z,76.80
2023-04-06T19:00:15.728Z,77.70
2023-04-06T19:02:43.717Z,76.11
2023-04-06T19:05:12.106Z,81.13
2023-04-06T19:07:39.956Z,74.96
2023-04-06T19:10:07.630Z,81.33
2023-04-06T19:12:35.934Z,74.64
2023-04-06T19:15:05.280Z,74.47
2023-04-06T19:17:32.402Z,72.97
2023-04-06T19:19:59.866Z,71.83
2023-04-06T19:22:27.572Z,70.68
2023-04-06T19:24:54.769Z,68.51
2023-04-06T19:27:22.077Z,69.01
2023-04-06T19:29:50.402Z,68.97
2023-04-06T19:32:17.912Z,69.00
2023-04-06T19:34:45.207Z,71.37
2023-04-06T19:37:12.687Z,72.92
2023-04-06T19:39:40.170Z,74.24
2023-04-06T19:42:07.357Z,76.37
2023-04-06T19:44:36.025Z,77.45
2023-04-06T19:47:03.171Z,79.43
2023-04-06T19:49:30.362Z,78.43
2023-04-06T19:51:57.955Z,78.67
2023-04-06T19:54:26.166Z,79.75
2023-04-06T19:56:54.161Z,79.65
2023-04-06T19:59:21.940Z,79.87
2023-04-06T20:01:49.217Z,79.28
2023-04-06T20:04:16.973Z,80.14
2023-04-06T20:06:44.383Z,78.76
2023-04-06T20:09:12.117Z,77.91
2023-04-06T20:11:39.574Z,78.01
2023-04-06T20:14:07.464Z,78.18
2023-04-06T20:16:34.772Z,78.07
2023-04-06T20:19:02.349Z,76.90
2023-04-06T20:21:29.520Z,76.80
2023-04-06T20:23:56.762Z,76.61
2023-04-06T20:26:24.174Z,76.66
2023-04-06T20:28:51.352Z,76.78
2023-04-06T20:31:18.475Z,76.35
2023-04-06T20:33:46.010Z,76.86
2023-04-06T20:36:13.164Z,76.92
2023-04-06T20:38:40.646Z,76.90
2023-04-06T20:41:08.110Z,76.79
2023-04-06T20:43:35.634Z,76.67
2023-04-06T20:46:03.187Z,75.24
2023-04-06T20:48:34.303Z,75.76
2023-04-06T20:51:03.380Z,75.57
2023-04-06T20:53:31.798Z,77.12
2023-04-06T20:56:01.065Z,76.79
2023-04-06T20:58:28.288Z,77.71
2023-04-06T21:00:55.961Z,77.41
2023-04-06T21:03:23.944Z,77.63
2023-04-06T21:05:52.094Z,78.78
2023-04-06T21:08:19.517Z,81.52
2023-04-06T21:10:46.703Z,81.25
2023-04-06T21:13:13.837Z,84.74
2023-04-06T21:15:41.468Z,83.21
2023-04-06T21:18:09.010Z,83.06
2023-04-06T21:20:37.055Z,83.41
2023-04-06T21:23:04.465Z,82.75
2023-04-06T21:25:31.690Z,81.87
2023-04-06T21:27:58.873Z,81.27
2023-04-06T21:30:26.281Z,78.54
2023-04-06T21:32:53.470Z,78.58
2023-04-06T21:35:20.742Z,80.64
2023-04-06T21:37:48.172Z,80.04
2023-04-06T21:40:15.346Z,80.03
2023-04-06T21:42:42.524Z,81.83
2023-04-06T21:45:10.113Z,81.59
2023-04-06T21:47:37.298Z,78.40
2023-04-06T21:50:04.629Z,76.62
2023-04-06T21:52:32.053Z,76.64
2023-04-06T21:54:59.290Z,77.33
2023-04-06T21:57:26.452Z,77.65
2023-04-06T21:59:54.039Z,76.45
2023-04-06T22:02:21.802Z,75.96
2023-04-06T22:04:49.566Z,77.30
2023-04-06T22:07:16.904Z,80.45
2023-04-06T22:09:50.796Z,76.90
2023-04-06T22:12:19.471Z,76.96
2023-04-06T22:14:46.679Z,76.13
2023-04-06T22:17:14.258Z,74.75
2023-04-06T22:19:41.800Z,73.97
2023-04-06T22:22:08.967Z,77.42
2023-04-06T22:24:36.192Z,77.32
2023-04-06T22:27:04.069Z,77.58
2023-04-06T22:29:31.241Z,78.58
2023-04-06T22:31:58.422Z,74.83
2023-04-06T22:34:25.978Z,75.31
2023-04-06T22:36:53.168Z,74.34
2023-04-06T22:39:20.490Z,74.08
2023-04-06T22:41:48.068Z,73.58
2023-04-06T22:44:15.648Z,75.82
2023-04-06T22:46:42.961Z,73.63
2023-04-06T22:49:10.580Z,76.16
2023-04-06T22:51:37.820Z,75.45
2023-04-06T22:54:04.986Z,74.34
2023-04-06T22:56:32.466Z,76.05
2023-04-06T22:58:59.752Z,74.62
2023-04-06T23:01:26.973Z,75.16
2023-04-06T23:03:54.813Z,74.35
2023-04-06T23:06:22.128Z,77.84
2023-04-06T23:08:49.336Z,74.34
2023-04-06T23:11:16.806Z,74.97
2023-04-06T23:13:43.985Z,76.10
2023-04-06T23:16:11.505Z,75.63
2023-04-06T23:18:39.106Z,75.04
2023-04-06T23:21:07.756Z,73.68
2023-04-06T23:23:35.083Z,73.54
2023-04-06T23:26:02.522Z,73.47
2023-04-06T23:28:29.723Z,73.54
2023-04-06T23:30:56.971Z,74.19
2023-04-06T23:33:27.064Z,72.47
2023-04-06T23:35:54.201Z,73.02
2023-04-06T23:38:21.357Z,72.92
2023-04-06T23:40:48.758Z,72.42
2023-04-06T23:43:15.927Z,71.96
2023-04-06T23:45:43.172Z,72.48
2023-04-06T23:48:10.898Z,70.57
2023-04-06T23:50:38.089Z,71.24
2023-04-06T23:53:05.645Z,72.42
2023-04-06T23:55:33.219Z,71.03
2023-04-06T23:58:00.518Z,72.57
